createdAt,value
2022-08-24T00:00:09.910Z,67.27
2022-08-24T00:01:09.889Z,67.27
2022-08-24T00:02:12.117Z,67.17
2022-08-24T00:03:10.039Z,67.27
2022-08-24T00:04:09.862Z,67.37
2022-08-24T00:05:13.997Z,67.27
2022-08-24T00:06:09.851Z,67.77
2022-08-24T00:07:19.249Z,67.77
2022-08-24T00:08:10.852Z,68.08
2022-08-24T00:09:09.812Z,68.08
2022-08-24T00:10:09.802Z,68.11
2022-08-24T00:11:09.781Z,67.80
2022-08-24T00:12:09.771Z,67.71
2022-08-24T00:13:09.762Z,67.71
2022-08-24T00:14:09.766Z,67.80
2022-08-24T00:15:09.745Z,67.60
2022-08-24T00:16:09.765Z,67.60
2022-08-24T00:17:09.733Z,67.71
2022-08-24T00:18:09.703Z,67.60
2022-08-24T00:19:09.736Z,67.60
2022-08-24T00:20:09.683Z,67.60
2022-08-24T00:21:09.673Z,67.80
2022-08-24T00:22:09.669Z,68.21
2022-08-24T00:23:09.644Z,68.21
2022-08-24T00:24:09.634Z,68.41
2022-08-24T00:25:09.644Z,68.74
2022-08-24T00:26:09.626Z,69.15
2022-08-24T00:27:09.595Z,69.05
2022-08-24T00:28:09.586Z,69.35
2022-08-24T00:29:09.585Z,69.35
2022-08-24T00:30:09.567Z,69.25
2022-08-24T00:31:09.615Z,69.35
2022-08-24T00:32:09.654Z,69.25
2022-08-24T00:33:09.527Z,69.25
2022-08-24T00:34:09.536Z,69.25
2022-08-24T00:35:09.517Z,69.25
2022-08-24T00:36:09.498Z,69.75
2022-08-24T00:37:09.507Z,69.95
2022-08-24T00:38:09.478Z,69.75
2022-08-24T00:39:09.477Z,69.45
2022-08-24T00:40:09.487Z,69.85
2022-08-24T00:41:09.479Z,69.55
2022-08-24T00:42:09.445Z,69.35
2022-08-24T00:43:09.457Z,69.35
2022-08-24T00:44:09.409Z,69.45
2022-08-24T00:45:09.389Z,69.35
2022-08-24T00:46:09.473Z,69.55
2022-08-24T00:47:09.369Z,69.45
2022-08-24T00:48:09.364Z,69.45
2022-08-24T00:49:09.380Z,69.45
2022-08-24T00:50:09.409Z,69.45
2022-08-24T00:51:09.329Z,69.45
2022-08-24T00:52:09.323Z,69.45
2022-08-24T00:53:09.300Z,69.59
2022-08-24T00:54:09.311Z,69.68
2022-08-24T00:55:09.311Z,69.79
2022-08-24T00:56:09.285Z,70.09
2022-08-24T00:57:09.263Z,69.89
2022-08-24T00:58:11.169Z,69.79
2022-08-24T00:59:10.252Z,69.79
2022-08-24T01:00:09.224Z,69.79
2022-08-24T01:01:09.386Z,69.99
2022-08-24T01:02:15.620Z,70.09
2022-08-24T01:03:10.193Z,70.19
2022-08-24T01:04:09.194Z,70.29
2022-08-24T01:05:09.178Z,70.29
2022-08-24T01:06:09.174Z,70.42
2022-08-24T01:07:09.143Z,70.53
2022-08-24T01:08:09.139Z,70.73
2022-08-24T01:09:09.139Z,70.73
2022-08-24T01:10:09.117Z,70.73
2022-08-24T01:11:09.119Z,70.83
2022-08-24T01:12:09.135Z,70.93
2022-08-24T01:13:09.135Z,70.83
2022-08-24T01:14:09.076Z,70.83
2022-08-24T01:15:09.057Z,70.93
2022-08-24T01:16:09.094Z,71.03
2022-08-24T01:17:09.027Z,71.13
2022-08-24T01:18:09.058Z,71.23
2022-08-24T01:19:09.024Z,72.44
2022-08-24T01:20:08.997Z,71.33
2022-08-24T01:21:08.988Z,71.33
2022-08-24T01:22:08.995Z,71.44
2022-08-24T01:23:08.966Z,71.44
2022-08-24T01:24:09.109Z,71.64
2022-08-24T01:25:08.938Z,71.64
2022-08-24T01:26:08.929Z,71.73
2022-08-24T01:27:08.930Z,71.53
2022-08-24T01:28:08.944Z,71.44
2022-08-24T01:29:08.902Z,71.53
2022-08-24T01:30:08.922Z,71.53
2022-08-24T01:31:08.894Z,71.53
2022-08-24T01:32:08.881Z,71.44
2022-08-24T01:33:08.850Z,71.53
2022-08-24T01:34:08.969Z,71.64
2022-08-24T01:35:08.921Z,71.73
2022-08-24T01:36:08.822Z,71.84
2022-08-24T01:37:08.801Z,71.84
2022-08-24T01:38:08.801Z,71.94
2022-08-24T01:39:08.780Z,72.54
2022-08-24T01:40:08.833Z,72.48
2022-08-24T01:41:08.781Z,72.88
2022-08-24T01:42:08.741Z,72.98
2022-08-24T01:43:08.729Z,73.28
2022-08-24T01:44:08.713Z,73.32
2022-08-24T01:45:08.695Z,73.32
2022-08-24T01:46:08.784Z,73.42
2022-08-24T01:47:08.706Z,73.42
2022-08-24T01:48:08.673Z,73.42
2022-08-24T01:49:08.656Z,73.52
2022-08-24T01:50:08.642Z,73.52
2022-08-24T01:51:08.670Z,73.52
2022-08-24T01:52:08.613Z,73.62
2022-08-24T01:53:08.646Z,73.82
2022-08-24T01:54:08.596Z,74.02
2022-08-24T01:55:08.584Z,74.13
2022-08-24T01:56:08.575Z,74.33
2022-08-24T01:57:08.555Z,74.53
2022-08-24T01:58:08.561Z,74.43
2022-08-24T01:59:08.569Z,73.82
2022-08-24T02:00:08.528Z,73.72
2022-08-24T02:01:08.516Z,73.72
2022-08-24T02:02:08.559Z,73.72
2022-08-24T02:03:08.554Z,73.93
2022-08-24T02:04:09.529Z,74.53
2022-08-24T02:05:08.507Z,73.82
2022-08-24T02:06:08.466Z,73.72
2022-08-24T02:07:08.456Z,73.72
2022-08-24T02:08:08.437Z,73.72
2022-08-24T02:09:08.434Z,73.72
2022-08-24T02:10:08.422Z,73.72
2022-08-24T02:11:08.419Z,73.72
2022-08-24T02:12:08.388Z,74.02
2022-08-24T02:13:08.387Z,74.02
2022-08-24T02:14:08.367Z,74.02
2022-08-24T02:15:08.350Z,74.13
2022-08-24T02:16:08.397Z,74.22
2022-08-24T02:17:08.330Z,74.33
2022-08-24T02:18:08.319Z,74.77
2022-08-24T02:19:09.304Z,75.17
2022-08-24T02:20:08.300Z,75.17
2022-08-24T02:21:08.280Z,75.07
2022-08-24T02:22:08.302Z,75.17
2022-08-24T02:23:08.270Z,75.37
2022-08-24T02:24:08.250Z,75.48
2022-08-24T02:25:08.238Z,75.48
2022-08-24T02:26:08.222Z,75.68
2022-08-24T02:27:08.216Z,75.78
2022-08-24T02:28:08.222Z,75.78
2022-08-24T02:29:08.192Z,75.48
2022-08-24T02:30:08.173Z,75.37
2022-08-24T02:31:08.213Z,75.37
2022-08-24T02:32:08.153Z,75.37
2022-08-24T02:33:08.161Z,75.37
2022-08-24T02:34:08.151Z,75.27
2022-08-24T02:35:08.132Z,75.37
2022-08-24T02:36:10.471Z,75.48
2022-08-24T02:37:09.134Z,75.48
2022-08-24T02:38:08.073Z,75.27
2022-08-24T02:39:08.073Z,75.78
2022-08-24T02:40:08.145Z,75.88
2022-08-24T02:41:08.043Z,75.78
2022-08-24T02:42:08.035Z,76.08
2022-08-24T02:43:08.019Z,76.22
2022-08-24T02:44:08.014Z,76.22
2022-08-24T02:45:07.985Z,76.32
2022-08-24T02:46:08.046Z,76.52
2022-08-24T02:47:08.970Z,76.72
2022-08-24T02:48:07.955Z,76.76
2022-08-24T02:49:11.209Z,76.97
2022-08-24T02:50:07.949Z,77.06
2022-08-24T02:51:07.916Z,77.06
2022-08-24T02:52:07.973Z,77.06
2022-08-24T02:53:07.911Z,77.26
2022-08-24T02:54:07.898Z,77.17
2022-08-24T02:55:07.888Z,77.17
2022-08-24T02:56:07.868Z,77.17
2022-08-24T02:57:07.857Z,77.26
2022-08-24T02:58:07.879Z,77.17
2022-08-24T02:59:07.832Z,77.26
2022-08-24T03:00:10.195Z,77.37
2022-08-24T03:01:08.297Z,77.47
2022-08-24T03:02:08.793Z,77.47
2022-08-24T03:03:07.839Z,77.67
2022-08-24T03:04:07.816Z,77.67
2022-08-24T03:05:07.774Z,77.57
2022-08-24T03:06:07.753Z,77.67
2022-08-24T03:07:07.752Z,77.77
2022-08-24T03:08:07.730Z,77.57
2022-08-24T03:09:07.714Z,77.67
2022-08-24T03:10:07.724Z,77.67
2022-08-24T03:11:07.691Z,77.87
2022-08-24T03:12:07.680Z,78.17
2022-08-24T03:13:07.695Z,78.08
2022-08-24T03:14:07.670Z,77.97
2022-08-24T03:15:07.631Z,77.77
2022-08-24T03:16:07.707Z,77.87
2022-08-24T03:17:07.621Z,77.77
2022-08-24T03:18:07.624Z,77.77
2022-08-24T03:19:07.606Z,77.67
2022-08-24T03:20:07.572Z,77.67
2022-08-24T03:21:07.564Z,77.67
2022-08-24T03:22:07.584Z,77.67
2022-08-24T03:23:07.536Z,77.97
2022-08-24T03:24:07.543Z,78.17
2022-08-24T03:25:07.521Z,78.42
2022-08-24T03:26:07.515Z,78.52
2022-08-24T03:27:08.270Z,78.42
2022-08-24T03:28:08.672Z,78.52
2022-08-24T03:29:07.474Z,78.72
2022-08-24T03:30:07.469Z,78.72
2022-08-24T03:31:07.562Z,78.92
2022-08-24T03:32:07.442Z,79.13
2022-08-24T03:33:07.417Z,79.22
2022-08-24T03:34:07.444Z,79.33
2022-08-24T03:35:07.394Z,79.43
2022-08-24T03:36:11.134Z,79.33
2022-08-24T03:37:08.376Z,79.33
2022-08-24T03:38:07.368Z,79.53
2022-08-24T03:39:07.348Z,79.46
2022-08-24T03:40:07.550Z,79.46
2022-08-24T03:41:08.338Z,79.36
2022-08-24T03:42:07.324Z,79.36
2022-08-24T03:43:07.308Z,79.46
2022-08-24T03:44:07.297Z,79.67
2022-08-24T03:45:07.357Z,79.77
2022-08-24T03:46:07.359Z,79.87
2022-08-24T03:47:07.273Z,79.77
2022-08-24T03:48:07.247Z,79.67
2022-08-24T03:49:07.238Z,79.77
2022-08-24T03:50:07.240Z,79.97
2022-08-24T03:51:07.279Z,80.07
2022-08-24T03:52:07.201Z,80.18
2022-08-24T03:53:07.189Z,80.18
2022-08-24T03:54:07.179Z,80.27
2022-08-24T03:55:07.160Z,80.27
2022-08-24T03:56:07.372Z,80.18
2022-08-24T03:57:07.162Z,80.07
2022-08-24T03:58:07.130Z,79.87
2022-08-24T03:59:07.120Z,79.83
2022-08-24T04:00:07.111Z,80.18
2022-08-24T04:01:07.146Z,80.38
2022-08-24T04:02:07.119Z,80.58
2022-08-24T04:03:07.102Z,80.78
2022-08-24T04:04:07.071Z,80.68
2022-08-24T04:05:07.052Z,80.58
2022-08-24T04:06:07.042Z,80.58
2022-08-24T04:07:07.022Z,80.68
2022-08-24T04:08:07.013Z,80.78
2022-08-24T04:09:07.035Z,80.78
2022-08-24T04:10:07.001Z,80.68
2022-08-24T04:11:06.993Z,80.88
2022-08-24T04:12:06.973Z,80.88
2022-08-24T04:13:07.021Z,80.88
2022-08-24T04:14:06.961Z,81.09
2022-08-24T04:15:06.961Z,81.05
2022-08-24T04:16:06.977Z,81.05
2022-08-24T04:17:06.929Z,80.94
2022-08-24T04:18:06.917Z,80.74
2022-08-24T04:19:06.884Z,80.64
2022-08-24T04:20:06.877Z,80.54
2022-08-24T04:21:06.897Z,80.54
2022-08-24T04:22:06.856Z,80.44
2022-08-24T04:23:06.845Z,80.34
2022-08-24T04:24:06.857Z,80.24
2022-08-24T04:25:09.219Z,80.54
2022-08-24T04:26:06.816Z,80.64
2022-08-24T04:27:06.837Z,80.74
2022-08-24T04:28:06.787Z,80.84
2022-08-24T04:29:08.409Z,80.84
2022-08-24T04:30:06.902Z,80.80
2022-08-24T04:31:06.789Z,80.80
2022-08-24T04:32:06.932Z,80.80
2022-08-24T04:33:06.766Z,80.71
2022-08-24T04:34:06.737Z,80.71
2022-08-24T04:35:06.794Z,80.91
2022-08-24T04:36:06.718Z,81.01
2022-08-24T04:37:10.853Z,80.91
2022-08-24T04:38:06.739Z,80.91
2022-08-24T04:39:06.718Z,81.11
2022-08-24T04:40:06.690Z,81.11
2022-08-24T04:41:06.775Z,81.21
2022-08-24T04:42:06.631Z,81.31
2022-08-24T04:43:06.630Z,81.31
2022-08-24T04:44:06.652Z,81.31
2022-08-24T04:45:06.603Z,81.21
2022-08-24T04:46:06.636Z,81.21
2022-08-24T04:47:06.600Z,81.11
2022-08-24T04:48:06.625Z,81.01
2022-08-24T04:49:06.541Z,81.01
2022-08-24T04:50:06.550Z,81.01
2022-08-24T04:51:06.521Z,81.01
2022-08-24T04:52:06.547Z,81.11
2022-08-24T04:53:06.502Z,81.11
2022-08-24T04:54:06.519Z,81.21
2022-08-24T04:55:06.517Z,81.11
2022-08-24T04:56:06.473Z,81.01
2022-08-24T04:57:06.453Z,81.11
2022-08-24T04:58:06.499Z,81.41
2022-08-24T04:59:06.442Z,81.01
2022-08-24T05:00:06.415Z,81.01
2022-08-24T05:01:06.520Z,80.71
2022-08-24T05:02:06.476Z,80.60
2022-08-24T05:03:06.398Z,80.71
2022-08-24T05:04:06.376Z,80.71
2022-08-24T05:05:06.354Z,80.60
2022-08-24T05:06:06.378Z,80.71
2022-08-24T05:07:06.367Z,80.80
2022-08-24T05:08:06.335Z,80.71
2022-08-24T05:09:06.337Z,80.60
2022-08-24T05:10:07.408Z,80.60
2022-08-24T05:11:06.283Z,80.71
2022-08-24T05:12:06.286Z,80.66
2022-08-24T05:13:06.292Z,80.66
2022-08-24T05:14:06.286Z,80.57
2022-08-24T05:15:07.253Z,80.57
2022-08-24T05:16:06.378Z,80.36
2022-08-24T05:17:06.226Z,80.46
2022-08-24T05:18:06.216Z,80.87
2022-08-24T05:19:06.265Z,80.97
2022-08-24T05:20:06.188Z,80.57
2022-08-24T05:21:06.182Z,80.87
2022-08-24T05:22:06.159Z,80.77
2022-08-24T05:23:06.390Z,80.87
2022-08-24T05:24:06.198Z,80.87
2022-08-24T05:25:06.128Z,80.87
2022-08-24T05:26:06.119Z,80.83
2022-08-24T05:27:06.122Z,80.73
2022-08-24T05:28:06.089Z,80.63
2022-08-24T05:29:06.089Z,80.63
2022-08-24T05:30:06.090Z,80.73
2022-08-24T05:31:06.098Z,80.43
2022-08-24T05:32:06.164Z,80.43
2022-08-24T05:33:06.196Z,80.29
2022-08-24T05:34:06.022Z,80.19
2022-08-24T05:35:06.041Z,80.29
2022-08-24T05:36:06.011Z,80.19
2022-08-24T05:37:06.002Z,80.08
2022-08-24T05:38:06.028Z,79.74
2022-08-24T05:39:10.531Z,80.05
2022-08-24T05:40:07.035Z,79.74
2022-08-24T05:41:05.942Z,79.54
2022-08-24T05:42:05.955Z,79.50
2022-08-24T05:43:05.943Z,79.41
2022-08-24T05:44:05.941Z,79.50
2022-08-24T05:45:05.913Z,79.30
2022-08-24T05:46:06.003Z,79.30
2022-08-24T05:47:05.911Z,79.27
2022-08-24T05:48:05.896Z,79.16
2022-08-24T05:49:05.876Z,79.06
2022-08-24T05:50:05.844Z,78.76
2022-08-24T05:51:05.868Z,78.46
2022-08-24T05:52:05.885Z,78.32
2022-08-24T05:53:06.077Z,78.22
2022-08-24T05:54:05.816Z,77.92
2022-08-24T05:55:05.785Z,77.78
2022-08-24T05:56:05.769Z,77.78
2022-08-24T05:57:05.808Z,77.48
2022-08-24T05:58:05.768Z,76.97
2022-08-24T05:59:05.746Z,76.84
2022-08-24T06:00:05.728Z,76.84
2022-08-24T06:01:05.716Z,76.74
2022-08-24T06:02:05.787Z,76.43
2022-08-24T06:03:05.875Z,75.99
2022-08-24T06:04:06.078Z,75.79
2022-08-24T06:05:05.669Z,75.49
2022-08-24T06:06:05.661Z,75.35
2022-08-24T06:07:05.648Z,75.05
2022-08-24T06:08:05.638Z,74.82
2022-08-24T06:09:05.669Z,74.52
2022-08-24T06:10:32.839Z,74.32
2022-08-24T06:11:06.611Z,73.88
2022-08-24T06:12:05.609Z,73.47
2022-08-24T06:13:05.869Z,73.14
2022-08-24T06:14:07.352Z,72.64
2022-08-24T06:15:05.579Z,72.44
2022-08-24T06:16:20.954Z,72.53
2022-08-24T06:17:06.617Z,72.53
2022-08-24T06:18:05.656Z,72.50
2022-08-24T06:19:05.510Z,72.50
2022-08-24T06:20:05.521Z,72.20
2022-08-24T06:21:05.644Z,72.10
2022-08-24T06:22:05.483Z,72.10
2022-08-24T06:23:05.527Z,71.90
2022-08-24T06:24:05.465Z,71.90
2022-08-24T06:25:05.451Z,71.56
2022-08-24T06:26:05.423Z,71.16
2022-08-24T06:27:05.462Z,70.96
2022-08-24T06:28:05.425Z,70.53
2022-08-24T06:29:05.413Z,70.32
2022-08-24T06:30:05.389Z,70.12
2022-08-24T06:31:05.427Z,70.09
2022-08-24T06:32:05.364Z,69.89
2022-08-24T06:33:05.590Z,69.56
2022-08-24T06:34:05.335Z,69.26
2022-08-24T06:35:05.376Z,68.85
2022-08-24T06:36:06.319Z,68.52
2022-08-24T06:37:05.337Z,68.92
2022-08-24T06:38:05.354Z,68.12
2022-08-24T06:39:05.509Z,67.72
2022-08-24T06:40:05.329Z,67.69
2022-08-24T06:41:05.267Z,67.39
2022-08-24T06:42:05.288Z,67.72
2022-08-24T06:43:05.413Z,67.69
2022-08-24T06:44:05.258Z,67.89
2022-08-24T06:45:05.276Z,67.79
2022-08-24T06:46:05.297Z,68.29
2022-08-24T06:47:05.247Z,68.59
2022-08-24T06:48:05.195Z,66.99
2022-08-24T06:49:05.178Z,66.99
2022-08-24T06:50:05.192Z,67.09
2022-08-24T06:51:05.151Z,67.49
2022-08-24T06:52:05.139Z,67.59
2022-08-24T06:53:05.291Z,67.59
2022-08-24T06:54:05.121Z,67.59
2022-08-24T06:55:05.114Z,67.19
2022-08-24T06:56:05.132Z,67.16
2022-08-24T06:57:05.091Z,67.05
2022-08-24T06:58:05.082Z,67.05
2022-08-24T06:59:05.068Z,66.32
2022-08-24T07:00:05.053Z,66.32
2022-08-24T07:01:05.043Z,65.79
2022-08-24T07:02:05.096Z,65.69
2022-08-24T07:03:05.161Z,65.59
2022-08-24T07:04:05.020Z,66.36
2022-08-24T07:05:05.005Z,64.96
2022-08-24T07:06:04.972Z,64.43
2022-08-24T07:07:04.983Z,64.83
2022-08-24T07:08:04.975Z,64.16
2022-08-24T07:09:04.946Z,64.73
2022-08-24T07:10:05.259Z,65.23
2022-08-24T07:11:04.923Z,64.93
2022-08-24T07:12:04.905Z,63.90
2022-08-24T07:13:05.202Z,63.90
2022-08-24T07:14:04.899Z,63.27
2022-08-24T07:15:04.874Z,63.07
2022-08-24T07:16:05.958Z,62.48
2022-08-24T07:17:04.882Z,63.17
2022-08-24T07:18:04.843Z,62.48
2022-08-24T07:19:04.859Z,62.90
2022-08-24T07:20:04.936Z,62.90
2022-08-24T07:21:04.807Z,62.87
2022-08-24T07:22:04.839Z,62.87
2022-08-24T07:23:05.050Z,62.87
2022-08-24T07:24:04.779Z,62.77
2022-08-24T07:25:04.883Z,62.87
2022-08-24T07:26:04.752Z,62.77
2022-08-24T07:27:04.741Z,62.77
2022-08-24T07:28:09.399Z,62.87
2022-08-24T07:29:05.760Z,63.07
2022-08-24T07:30:25.850Z,63.17
2022-08-24T07:31:05.828Z,62.87
2022-08-24T07:32:04.701Z,62.77
2022-08-24T07:33:04.731Z,63.17
2022-08-24T07:34:04.675Z,63.27
2022-08-24T07:35:04.683Z,62.84
2022-08-24T07:36:04.696Z,62.84
2022-08-24T07:37:04.647Z,62.24
2022-08-24T07:38:04.769Z,62.01
2022-08-24T07:39:04.644Z,61.82
2022-08-24T07:40:04.660Z,61.41
2022-08-24T07:41:35.449Z,60.99
2022-08-24T07:42:17.224Z,60.89
2022-08-24T07:43:05.584Z,61.19
2022-08-24T07:44:04.564Z,60.89
2022-08-24T07:45:04.579Z,60.89
2022-08-24T07:46:04.592Z,61.19
2022-08-24T07:47:27.238Z,60.96
2022-08-24T07:48:05.595Z,60.86
2022-08-24T07:49:12.634Z,61.13
2022-08-24T07:50:05.516Z,60.63
2022-08-24T07:51:04.544Z,59.91
2022-08-24T07:52:04.488Z,58.91
2022-08-24T07:53:04.714Z,58.61
2022-08-24T07:54:04.472Z,58.91
2022-08-24T07:55:05.441Z,58.31
2022-08-24T07:56:04.449Z,57.82
2022-08-24T07:57:04.413Z,58.22
2022-08-24T07:58:04.410Z,58.01
2022-08-24T07:59:04.429Z,57.99
2022-08-24T08:00:04.826Z,57.29
2022-08-24T08:01:04.484Z,57.19
2022-08-24T08:02:04.435Z,57.59
2022-08-24T08:03:04.772Z,57.56
2022-08-24T08:04:04.388Z,57.26
2022-08-24T08:05:05.080Z,57.26
2022-08-24T08:06:04.393Z,56.24
2022-08-24T08:07:04.342Z,56.44
2022-08-24T08:08:04.446Z,55.74
2022-08-24T08:09:04.271Z,55.82
2022-08-24T08:10:04.263Z,55.62
2022-08-24T08:11:04.290Z,54.93
2022-08-24T08:12:04.235Z,55.72
2022-08-24T08:13:04.238Z,56.21
2022-08-24T08:14:04.438Z,55.91
2022-08-24T08:15:04.246Z,56.02
2022-08-24T08:16:06.543Z,56.21
2022-08-24T08:17:04.261Z,55.49
2022-08-24T08:18:04.502Z,55.10
2022-08-24T08:19:10.454Z,56.09
2022-08-24T08:20:05.174Z,54.70
2022-08-24T08:21:04.139Z,54.80
2022-08-24T08:22:04.158Z,55.19
2022-08-24T08:23:04.141Z,54.90
2022-08-24T08:24:04.155Z,54.90
2022-08-24T08:25:04.087Z,55.49
2022-08-24T08:26:04.100Z,55.79
2022-08-24T08:27:04.130Z,54.77
2022-08-24T08:28:12.801Z,54.38
2022-08-24T08:29:05.057Z,54.55
2022-08-24T08:30:04.051Z,54.45
2022-08-24T08:31:04.111Z,54.47
2022-08-24T08:32:04.019Z,54.80
2022-08-24T08:33:04.150Z,55.10
2022-08-24T08:34:04.063Z,55.22
2022-08-24T08:35:03.986Z,55.19
2022-08-24T08:36:03.970Z,55.40
2022-08-24T08:37:04.011Z,55.49
2022-08-24T08:38:04.202Z,55.10
2022-08-24T08:39:03.941Z,54.90
2022-08-24T08:40:04.051Z,55.19
2022-08-24T08:41:03.943Z,55.29
2022-08-24T08:42:03.912Z,55.07
2022-08-24T08:43:03.881Z,54.55
2022-08-24T08:44:03.890Z,53.53
2022-08-24T08:45:03.893Z,53.63
2022-08-24T08:46:03.887Z,53.11
2022-08-24T08:47:03.843Z,51.92
2022-08-24T08:49:03.838Z,52.02
2022-08-24T08:50:03.823Z,51.82
2022-08-24T08:51:03.864Z,51.62
2022-08-24T08:52:03.813Z,52.88
2022-08-24T08:53:04.010Z,51.50
2022-08-24T08:54:03.792Z,51.89
2022-08-24T08:55:03.804Z,51.79
2022-08-24T08:56:03.780Z,52.41
2022-08-24T08:57:03.796Z,51.70
2022-08-24T08:58:03.735Z,51.40
2022-08-24T08:59:04.248Z,50.78
2022-08-24T09:00:03.710Z,50.78
2022-08-24T09:01:05.133Z,51.54
2022-08-24T09:02:03.714Z,50.36
2022-08-24T09:03:03.837Z,50.26
2022-08-24T09:04:03.710Z,50.06
2022-08-24T09:05:03.659Z,50.46
2022-08-24T09:06:03.654Z,49.96
2022-08-24T09:07:03.630Z,49.59
2022-08-24T09:08:03.843Z,49.47
2022-08-24T09:09:03.632Z,49.37
2022-08-24T09:10:03.602Z,49.17
2022-08-24T09:11:03.600Z,49.44
2022-08-24T09:12:03.570Z,49.54
2022-08-24T09:13:03.585Z,48.95
2022-08-24T09:14:03.562Z,48.95
2022-08-24T09:15:03.592Z,48.53
2022-08-24T09:16:06.057Z,48.53
2022-08-24T09:17:05.947Z,48.51
2022-08-24T09:18:03.646Z,48.31
2022-08-24T09:19:03.532Z,48.19
2022-08-24T09:20:03.533Z,47.40
2022-08-24T09:21:03.522Z,47.69
2022-08-24T09:22:03.464Z,47.18
2022-08-24T09:23:03.463Z,46.88
2022-08-24T09:24:03.435Z,46.59
2022-08-24T09:25:03.436Z,47.08
2022-08-24T09:26:03.417Z,46.56
2022-08-24T09:27:03.536Z,46.66
2022-08-24T09:28:03.763Z,46.26
2022-08-24T09:29:03.393Z,46.88
2022-08-24T09:30:03.377Z,46.70
2022-08-24T09:31:03.448Z,46.93
2022-08-24T09:32:03.391Z,47.62
2022-08-24T09:33:03.491Z,47.52
2022-08-24T09:34:04.094Z,47.79
2022-08-24T09:35:03.399Z,47.18
2022-08-24T09:36:03.331Z,46.78
2022-08-24T09:37:03.381Z,46.26
2022-08-24T09:38:03.358Z,45.95
2022-08-24T09:39:03.304Z,45.65
2022-08-24T09:40:03.423Z,45.53
2022-08-24T09:41:03.299Z,45.63
2022-08-24T09:42:03.296Z,44.53
2022-08-24T09:43:04.483Z,44.33
2022-08-24T09:44:03.569Z,44.53
2022-08-24T09:45:03.227Z,43.54
2022-08-24T09:46:03.282Z,44.01
2022-08-24T09:47:03.211Z,43.52
2022-08-24T09:48:03.171Z,43.32
2022-08-24T09:49:03.191Z,43.82
2022-08-24T09:50:03.194Z,43.42
2022-08-24T09:51:03.257Z,44.40
2022-08-24T09:52:03.151Z,43.52
2022-08-24T09:53:03.290Z,44.31
2022-08-24T09:54:03.139Z,43.52
2022-08-24T09:55:03.118Z,42.63
2022-08-24T09:56:03.114Z,42.83
2022-08-24T09:57:12.246Z,42.91
2022-08-24T09:58:04.087Z,44.03
2022-08-24T09:59:03.045Z,43.74
2022-08-24T10:00:03.045Z,43.91
2022-08-24T10:01:03.108Z,43.71
2022-08-24T10:02:03.078Z,43.23
2022-08-24T10:03:03.027Z,43.50
2022-08-24T10:04:03.007Z,42.89
2022-08-24T10:05:03.151Z,42.10
2022-08-24T10:06:03.097Z,42.81
2022-08-24T10:07:03.127Z,43.10
2022-08-24T10:08:03.240Z,43.60
2022-08-24T10:09:02.948Z,42.59
2022-08-24T10:10:02.945Z,41.98
2022-08-24T10:11:02.920Z,41.59
2022-08-24T10:12:02.910Z,41.49
2022-08-24T10:13:02.941Z,42.18
2022-08-24T10:14:02.894Z,41.56
2022-08-24T10:15:02.879Z,41.37
2022-08-24T10:16:02.885Z,41.08
2022-08-24T10:17:02.878Z,41.08
2022-08-24T10:18:02.985Z,40.88
2022-08-24T10:19:02.963Z,41.29
2022-08-24T10:20:02.833Z,41.59
2022-08-24T10:21:02.835Z,41.56
2022-08-24T10:22:02.801Z,41.37
2022-08-24T10:23:02.783Z,41.06
2022-08-24T10:24:02.852Z,40.56
2022-08-24T10:25:02.819Z,40.09
2022-08-24T10:26:02.751Z,40.17
2022-08-24T10:27:02.783Z,39.78
2022-08-24T10:28:02.887Z,38.78
2022-08-24T10:29:02.723Z,38.68
2022-08-24T10:30:02.767Z,39.17
2022-08-24T10:31:02.706Z,39.07
2022-08-24T10:32:02.819Z,39.07
2022-08-24T10:33:02.767Z,38.78
2022-08-24T10:34:02.674Z,38.68
2022-08-24T10:35:02.647Z,38.48
2022-08-24T10:36:02.912Z,38.29
2022-08-24T10:37:02.670Z,38.46
2022-08-24T10:38:02.777Z,39.06
2022-08-24T10:39:02.648Z,36.80
2022-08-24T10:40:05.013Z,37.99
2022-08-24T10:41:02.610Z,37.62
2022-08-24T10:42:02.620Z,39.09
2022-08-24T10:43:02.585Z,39.09
2022-08-24T10:44:02.562Z,37.90
2022-08-24T10:45:02.589Z,37.80
2022-08-24T10:46:02.667Z,37.30
2022-08-24T10:47:02.530Z,37.40
2022-08-24T10:48:02.703Z,38.40
2022-08-24T10:49:03.491Z,39.39
2022-08-24T10:50:02.527Z,39.56
2022-08-24T10:51:02.494Z,38.58
2022-08-24T10:52:02.515Z,37.80
2022-08-24T10:53:02.503Z,38.29
2022-08-24T10:54:02.464Z,38.78
2022-08-24T10:55:02.454Z,38.78
2022-08-24T10:56:02.445Z,37.98
2022-08-24T10:57:02.444Z,37.88
2022-08-24T10:58:02.564Z,37.99
2022-08-24T10:59:02.426Z,37.80
2022-08-24T11:00:02.396Z,37.40
2022-08-24T11:01:02.453Z,36.99
2022-08-24T11:02:02.402Z,35.41
2022-08-24T11:03:03.402Z,35.50
2022-08-24T11:04:02.413Z,35.50
2022-08-24T11:05:02.348Z,35.70
2022-08-24T11:06:02.360Z,35.99
2022-08-24T11:07:02.343Z,35.49
2022-08-24T11:08:02.594Z,36.47
2022-08-24T11:09:02.329Z,34.80
2022-08-24T11:10:02.311Z,35.10
2022-08-24T11:11:02.288Z,35.19
2022-08-24T11:12:02.260Z,35.19
2022-08-24T11:13:02.281Z,35.88
2022-08-24T11:14:02.241Z,35.17
2022-08-24T11:15:02.382Z,35.06
2022-08-24T11:16:02.306Z,35.17
2022-08-24T11:17:02.301Z,34.69
2022-08-24T11:18:02.308Z,35.27
2022-08-24T11:19:02.208Z,35.27
2022-08-24T11:20:02.173Z,34.96
2022-08-24T11:21:02.347Z,35.35
2022-08-24T11:22:02.155Z,34.98
2022-08-24T11:23:02.194Z,35.99
2022-08-24T11:24:02.171Z,36.66
2022-08-24T11:25:02.173Z,36.57
2022-08-24T11:26:02.345Z,35.86
2022-08-24T11:27:02.106Z,35.45
2022-08-24T11:28:02.086Z,35.65
2022-08-24T11:29:02.078Z,35.83
2022-08-24T11:30:02.057Z,34.26
2022-08-24T11:31:02.126Z,33.75
2022-08-24T11:32:02.056Z,34.74
2022-08-24T11:33:02.046Z,34.94
2022-08-24T11:34:02.008Z,34.55
2022-08-24T11:35:02.007Z,34.26
2022-08-24T11:36:01.987Z,34.77
2022-08-24T11:37:02.117Z,35.35
2022-08-24T11:38:01.962Z,35.45
2022-08-24T11:39:01.959Z,34.65
2022-08-24T11:40:01.963Z,35.44
2022-08-24T11:41:01.930Z,34.75
2022-08-24T11:42:01.940Z,34.84
2022-08-24T11:43:05.755Z,35.73
2022-08-24T11:44:01.911Z,34.83
2022-08-24T11:45:01.993Z,35.13
2022-08-24T11:46:01.898Z,34.54
2022-08-24T11:47:01.933Z,34.42
2022-08-24T11:48:01.913Z,35.13
2022-08-24T11:49:01.872Z,34.81
2022-08-24T11:50:01.849Z,34.91
2022-08-24T11:51:01.836Z,34.81
2022-08-24T11:52:01.804Z,35.11
2022-08-24T11:53:01.815Z,35.40
2022-08-24T11:54:01.786Z,35.52
2022-08-24T11:55:01.825Z,35.14
2022-08-24T11:56:01.780Z,35.93
2022-08-24T11:57:01.808Z,35.42
2022-08-24T11:58:01.786Z,34.83
2022-08-24T11:59:01.748Z,35.13
2022-08-24T12:00:01.793Z,35.13
2022-08-24T12:01:01.736Z,35.34
2022-08-24T12:02:01.803Z,35.83
2022-08-24T12:03:01.797Z,35.93
2022-08-24T12:04:01.678Z,35.32
2022-08-24T12:05:01.686Z,35.03
2022-08-24T12:06:01.689Z,35.32
2022-08-24T12:07:01.650Z,36.59
2022-08-24T12:08:01.714Z,35.52
2022-08-24T12:09:01.667Z,35.61
2022-08-24T12:10:01.632Z,35.42
2022-08-24T12:11:01.612Z,35.32
2022-08-24T12:12:01.622Z,35.81
2022-08-24T12:13:01.583Z,34.93
2022-08-24T12:14:01.590Z,35.40
2022-08-24T12:15:01.594Z,34.33
2022-08-24T12:16:01.660Z,34.81
2022-08-24T12:17:01.564Z,33.84
2022-08-24T12:18:01.565Z,33.84
2022-08-24T12:19:01.527Z,34.65
2022-08-24T12:20:01.505Z,35.34
2022-08-24T12:21:01.504Z,36.04
2022-08-24T12:22:01.488Z,35.65
2022-08-24T12:23:01.506Z,35.65
2022-08-24T12:24:01.457Z,36.94
2022-08-24T12:25:01.455Z,36.45
2022-08-24T12:26:01.435Z,36.16
2022-08-24T12:27:01.436Z,35.45
2022-08-24T12:28:01.427Z,35.45
2022-08-24T12:29:01.458Z,35.85
2022-08-24T12:30:01.439Z,36.14
2022-08-24T12:31:01.474Z,36.33
2022-08-24T12:32:01.368Z,35.85
2022-08-24T12:33:01.373Z,35.44
2022-08-24T12:34:01.369Z,36.14
2022-08-24T12:35:01.374Z,35.06
2022-08-24T12:36:01.331Z,35.08
2022-08-24T12:37:01.328Z,35.47
2022-08-24T12:38:01.300Z,36.74
2022-08-24T12:39:01.310Z,36.06
2022-08-24T12:40:01.380Z,34.98
2022-08-24T12:41:03.354Z,35.29
2022-08-24T12:42:02.262Z,35.78
2022-08-24T12:43:01.313Z,36.27
2022-08-24T12:44:01.248Z,36.18
2022-08-24T12:45:01.251Z,35.97
2022-08-24T12:46:01.330Z,37.45
2022-08-24T12:47:01.216Z,35.96
2022-08-24T12:48:01.217Z,35.96
2022-08-24T12:49:01.200Z,36.35
2022-08-24T12:50:01.219Z,36.45
2022-08-24T12:51:01.184Z,36.14
2022-08-24T12:52:01.167Z,35.94
2022-08-24T12:53:01.176Z,35.86